sensor_id;sensor_type;location;lat;lon;timestamp;P1;durP1;ratioP1;P2;durP2;ratioP2
51838;SDS011;37886;53.174;6.368;2022-10-15T00:01:40;126.10;;;63.15;;
51838;SDS011;37886;53.174;6.368;2022-10-15T00:04:06;135.82;;;66.13;;
51838;SDS011;37886;53.174;6.368;2022-10-15T00:06:32;131.82;;;63.25;;
51838;SDS011;37886;53.174;6.368;2022-10-15T00:08:58;135.98;;;66.22;;
51838;SDS011;37886;53.174;6.368;2022-10-15T00:11:25;132.20;;;60.80;;
51838;SDS011;37886;53.174;6.368;2022-10-15T00:13:52;148.50;;;63.97;;
51838;SDS011;37886;53.174;6.368;2022-10-15T00:16:20;160.35;;;67.78;;
51838;SDS011;37886;53.174;6.368;2022-10-15T00:18:48;129.10;;;61.65;;
51838;SDS011;37886;53.174;6.368;2022-10-15T00:21:16;147.95;;;63.80;;
51838;SDS011;37886;53.174;6.368;2022-10-15T00:23:44;129.73;;;63.50;;
51838;SDS011;37886;53.174;6.368;2022-10-15T00:26:15;123.05;;;59.63;;
51838;SDS011;37886;53.174;6.368;2022-10-15T00:28:45;131.05;;;66.63;;
51838;SDS011;37886;53.174;6.368;2022-10-15T00:31:14;119.45;;;65.55;;
51838;SDS011;37886;53.174;6.368;2022-10-15T00:33:41;119.05;;;62.00;;
51838;SDS011;37886;53.174;6.368;2022-10-15T00:36:28;135.52;;;64.90;;
51838;SDS011;37886;53.174;6.368;2022-10-15T00:38:56;132.70;;;63.80;;
51838;SDS011;37886;53.174;6.368;2022-10-15T00:41:25;144.98;;;64.78;;
51838;SDS011;37886;53.174;6.368;2022-10-15T00:43:57;134.95;;;64.50;;
51838;SDS011;37886;53.174;6.368;2022-10-15T00:46:42;123.40;;;63.15;;
51838;SDS011;37886;53.174;6.368;2022-10-15T00:49:14;130.15;;;65.28;;
51838;SDS011;37886;53.174;6.368;2022-10-15T00:54:25;121.97;;;63.38;;
51838;SDS011;37886;53.174;6.368;2022-10-15T00:56:53;157.07;;;65.38;;
51838;SDS011;37886;53.174;6.368;2022-10-15T00:59:20;117.68;;;63.20;;
51838;SDS011;37886;53.174;6.368;2022-10-15T01:01:48;132.93;;;65.78;;
51838;SDS011;37886;53.174;6.368;2022-10-15T01:04:14;114.53;;;59.65;;
51838;SDS011;37886;53.174;6.368;2022-10-15T01:06:41;120.40;;;60.75;;
51838;SDS011;37886;53.174;6.368;2022-10-15T01:09:07;133.35;;;62.55;;
51838;SDS011;37886;53.174;6.368;2022-10-15T01:22:22;152.20;;;68.65;;
51838;SDS011;37886;53.174;6.368;2022-10-15T01:28:44;141.60;;;64.82;;
51838;SDS011;37886;53.174;6.368;2022-10-15T01:30:48;129.98;;;62.53;;
51838;SDS011;37886;53.174;6.368;2022-10-15T01:33:35;125.40;;;63.30;;
51838;SDS011;37886;53.174;6.368;2022-10-15T01:36:15;148.02;;;66.97;;
51838;SDS011;37886;53.174;6.368;2022-10-15T01:38:50;117.13;;;62.10;;
51838;SDS011;37886;53.174;6.368;2022-10-15T01:41:40;114.63;;;60.20;;
51838;SDS011;37886;53.174;6.368;2022-10-15T01:46:41;127.07;;;62.00;;
51838;SDS011;37886;53.174;6.368;2022-10-15T01:49:09;127.32;;;63.63;;
51838;SDS011;37886;53.174;6.368;2022-10-15T01:51:37;119.00;;;64.40;;
51838;SDS011;37886;53.174;6.368;2022-10-15T01:54:07;113.18;;;61.67;;
51838;SDS011;37886;53.174;6.368;2022-10-15T01:56:38;128.52;;;63.38;;
51838;SDS011;37886;53.174;6.368;2022-10-15T01:59:04;129.85;;;63.00;;
51838;SDS011;37886;53.174;6.368;2022-10-15T02:01:31;129.95;;;63.25;;
51838;SDS011;37886;53.174;6.368;2022-10-15T02:03:56;124.22;;;62.85;;
51838;SDS011;37886;53.174;6.368;2022-10-15T02:06:43;124.07;;;61.75;;
51838;SDS011;37886;53.174;6.368;2022-10-15T02:11:41;112.57;;;59.42;;
51838;SDS011;37886;53.174;6.368;2022-10-15T02:14:21;123.60;;;60.42;;
51838;SDS011;37886;53.174;6.368;2022-10-15T02:17:00;119.75;;;57.70;;
51838;SDS011;37886;53.174;6.368;2022-10-15T02:19:40;107.88;;;56.92;;
51838;SDS011;37886;53.174;6.368;2022-10-15T02:22:28;136.13;;;59.00;;
51838;SDS011;37886;53.174;6.368;2022-10-15T02:25:04;119.20;;;60.38;;
51838;SDS011;37886;53.174;6.368;2022-10-15T02:27:31;114.68;;;59.20;;
51838;SDS011;37886;53.174;6.368;2022-10-15T02:29:58;112.28;;;55.92;;
51838;SDS011;37886;53.174;6.368;2022-10-15T02:32:27;119.88;;;59.95;;
51838;SDS011;37886;53.174;6.368;2022-10-15T02:34:55;134.60;;;62.15;;
51838;SDS011;37886;53.174;6.368;2022-10-15T02:37:23;97.03;;;52.38;;
51838;SDS011;37886;53.174;6.368;2022-10-15T02:39:51;118.35;;;57.35;;
51838;SDS011;37886;53.174;6.368;2022-10-15T02:42:17;110.93;;;57.47;;
51838;SDS011;37886;53.174;6.368;2022-10-15T02:44:43;119.50;;;60.38;;
51838;SDS011;37886;53.174;6.368;2022-10-15T02:47:09;110.45;;;57.63;;
51838;SDS011;37886;53.174;6.368;2022-10-15T02:49:35;122.50;;;55.80;;
51838;SDS011;37886;53.174;6.368;2022-10-15T02:52:01;107.97;;;52.78;;
51838;SDS011;37886;53.174;6.368;2022-10-15T02:54:28;111.13;;;54.20;;
51838;SDS011;37886;53.174;6.368;2022-10-15T02:56:53;99.07;;;50.92;;
51838;SDS011;37886;53.174;6.368;2022-10-15T02:59:19;103.65;;;51.92;;
51838;SDS011;37886;53.174;6.368;2022-10-15T03:01:44;107.55;;;55.42;;
51838;SDS011;37886;53.174;6.368;2022-10-15T03:04:10;109.55;;;56.72;;
51838;SDS011;37886;53.174;6.368;2022-10-15T03:06:36;102.80;;;55.40;;
51838;SDS011;37886;53.174;6.368;2022-10-15T03:09:02;105.10;;;53.28;;
51838;SDS011;37886;53.174;6.368;2022-10-15T03:11:28;103.95;;;52.95;;
51838;SDS011;37886;53.174;6.368;2022-10-15T03:13:53;103.38;;;54.33;;
51838;SDS011;37886;53.174;6.368;2022-10-15T03:16:19;107.80;;;54.40;;
51838;SDS011;37886;53.174;6.368;2022-10-15T03:18:46;105.18;;;52.75;;
51838;SDS011;37886;53.174;6.368;2022-10-15T03:21:11;105.38;;;54.13;;
51838;SDS011;37886;53.174;6.368;2022-10-15T03:23:37;104.75;;;54.00;;
51838;SDS011;37886;53.174;6.368;2022-10-15T03:26:03;109.70;;;55.30;;
51838;SDS011;37886;53.174;6.368;2022-10-15T03:28:29;103.97;;;54.28;;
51838;SDS011;37886;53.174;6.368;2022-10-15T03:30:55;102.20;;;53.92;;
51838;SDS011;37886;53.174;6.368;2022-10-15T03:33:20;94.32;;;51.80;;
51838;SDS011;37886;53.174;6.368;2022-10-15T03:35:46;97.07;;;52.75;;
51838;SDS011;37886;53.174;6.368;2022-10-15T03:38:11;107.20;;;51.40;;
51838;SDS011;37886;53.174;6.368;2022-10-15T03:40:37;88.00;;;50.72;;
51838;SDS011;37886;53.174;6.368;2022-10-15T03:43:03;92.25;;;50.40;;
51838;SDS011;37886;53.174;6.368;2022-10-15T03:45:29;93.75;;;51.85;;
51838;SDS011;37886;53.174;6.368;2022-10-15T03:47:54;105.45;;;51.55;;
51838;SDS011;37886;53.174;6.368;2022-10-15T03:50:20;109.97;;;53.70;;
51838;SDS011;37886;53.174;6.368;2022-10-15T03:52:46;106.20;;;54.53;;
51838;SDS011;37886;53.174;6.368;2022-10-15T03:55:11;93.85;;;53.78;;
51838;SDS011;37886;53.174;6.368;2022-10-15T03:57:37;106.18;;;55.05;;
51838;SDS011;37886;53.174;6.368;2022-10-15T04:00:04;103.82;;;53.90;;
51838;SDS011;37886;53.174;6.368;2022-10-15T04:02:31;106.90;;;54.30;;
51838;SDS011;37886;53.174;6.368;2022-10-15T04:04:57;103.60;;;52.25;;
51838;SDS011;37886;53.174;6.368;2022-10-15T04:07:23;112.55;;;54.72;;
51838;SDS011;37886;53.174;6.368;2022-10-15T04:09:48;103.47;;;51.45;;
51838;SDS011;37886;53.174;6.368;2022-10-15T04:12:14;108.38;;;54.78;;
51838;SDS011;37886;53.174;6.368;2022-10-15T04:14:40;129.00;;;60.42;;
51838;SDS011;37886;53.174;6.368;2022-10-15T04:17:06;136.02;;;56.95;;
51838;SDS011;37886;53.174;6.368;2022-10-15T04:19:33;126.88;;;57.78;;
51838;SDS011;37886;53.174;6.368;2022-10-15T04:21:58;142.02;;;58.53;;
51838;SDS011;37886;53.174;6.368;2022-10-15T04:24:24;126.70;;;58.95;;
51838;SDS011;37886;53.174;6.368;2022-10-15T04:26:50;131.75;;;58.58;;
51838;SDS011;37886;53.174;6.368;2022-10-15T04:29:15;133.93;;;61.88;;
51838;SDS011;37886;53.174;6.368;2022-10-15T04:31:41;137.82;;;60.25;;
51838;SDS011;37886;53.174;6.368;2022-10-15T04:34:07;145.82;;;62.90;;
51838;SDS011;37886;53.174;6.368;2022-10-15T04:36:33;173.38;;;63.38;;
51838;SDS011;37886;53.174;6.368;2022-10-15T04:38:59;153.50;;;64.95;;
51838;SDS011;37886;53.174;6.368;2022-10-15T04:41:25;138.65;;;59.75;;
51838;SDS011;37886;53.174;6.368;2022-10-15T04:43:52;158.23;;;63.80;;
51838;SDS011;37886;53.174;6.368;2022-10-15T04:46:17;165.75;;;62.20;;
51838;SDS011;37886;53.174;6.368;2022-10-15T04:48:46;157.38;;;63.33;;
51838;SDS011;37886;53.174;6.368;2022-10-15T04:51:13;153.57;;;63.58;;
51838;SDS011;37886;53.174;6.368;2022-10-15T04:53:41;168.40;;;62.85;;
51838;SDS011;37886;53.174;6.368;2022-10-15T04:56:09;138.27;;;61.65;;
51838;SDS011;37886;53.174;6.368;2022-10-15T04:58:42;137.80;;;62.10;;
51838;SDS011;37886;53.174;6.368;2022-10-15T05:01:10;156.18;;;59.53;;
51838;SDS011;37886;53.174;6.368;2022-10-15T05:03:37;166.13;;;60.72;;
51838;SDS011;37886;53.174;6.368;2022-10-15T05:06:05;165.48;;;57.70;;
51838;SDS011;37886;53.174;6.368;2022-10-15T05:08:33;133.10;;;61.97;;
51838;SDS011;37886;53.174;6.368;2022-10-15T05:11:03;155.65;;;60.10;;
51838;SDS011;37886;53.174;6.368;2022-10-15T05:13:31;143.02;;;57.83;;
51838;SDS011;37886;53.174;6.368;2022-10-15T05:16:03;137.05;;;61.20;;
51838;SDS011;37886;53.174;6.368;2022-10-15T05:18:40;138.27;;;60.08;;
51838;SDS011;37886;53.174;6.368;2022-10-15T05:21:06;153.75;;;60.22;;
51838;SDS011;37886;53.174;6.368;2022-10-15T05:23:32;137.32;;;61.83;;
51838;SDS011;37886;53.174;6.368;2022-10-15T05:25:59;132.38;;;57.65;;
51838;SDS011;37886;53.174;6.368;2022-10-15T05:28:25;140.88;;;61.72;;
51838;SDS011;37886;53.174;6.368;2022-10-15T05:30:51;148.40;;;64.47;;
51838;SDS011;37886;53.174;6.368;2022-10-15T05:33:17;128.15;;;61.15;;
51838;SDS011;37886;53.174;6.368;2022-10-15T05:35:42;165.98;;;65.38;;
51838;SDS011;37886;53.174;6.368;2022-10-15T05:38:08;140.20;;;61.22;;
51838;SDS011;37886;53.174;6.368;2022-10-15T05:40:33;150.30;;;69.25;;
51838;SDS011;37886;53.174;6.368;2022-10-15T05:42:59;171.88;;;66.13;;
51838;SDS011;37886;53.174;6.368;2022-10-15T05:45:25;179.77;;;71.32;;
51838;SDS011;37886;53.174;6.368;2022-10-15T05:47:54;165.57;;;70.22;;
51838;SDS011;37886;53.174;6.368;2022-10-15T05:50:20;169.73;;;68.80;;
51838;SDS011;37886;53.174;6.368;2022-10-15T05:52:46;190.85;;;70.75;;
51838;SDS011;37886;53.174;6.368;2022-10-15T05:55:12;182.77;;;74.03;;
51838;SDS011;37886;53.174;6.368;2022-10-15T05:57:38;184.25;;;72.25;;
51838;SDS011;37886;53.174;6.368;2022-10-15T06:00:04;177.32;;;73.00;;
51838;SDS011;37886;53.174;6.368;2022-10-15T06:02:30;180.48;;;75.55;;
51838;SDS011;37886;53.174;6.368;2022-10-15T06:04:56;191.10;;;72.30;;
51838;SDS011;37886;53.174;6.368;2022-10-15T06:07:21;197.60;;;75.75;;
51838;SDS011;37886;53.174;6.368;2022-10-15T06:09:47;189.63;;;75.80;;
51838;SDS011;37886;53.174;6.368;2022-10-15T06:12:13;207.25;;;86.60;;
51838;SDS011;37886;53.174;6.368;2022-10-15T06:14:38;182.93;;;73.60;;
51838;SDS011;37886;53.174;6.368;2022-10-15T06:17:04;204.27;;;76.38;;
51838;SDS011;37886;53.174;6.368;2022-10-15T06:19:30;224.38;;;78.78;;
51838;SDS011;37886;53.174;6.368;2022-10-15T06:21:56;196.23;;;77.53;;
51838;SDS011;37886;53.174;6.368;2022-10-15T06:24:22;193.95;;;75.97;;
51838;SDS011;37886;53.174;6.368;2022-10-15T06:26:47;200.30;;;81.70;;
51838;SDS011;37886;53.174;6.368;2022-10-15T06:29:13;184.25;;;78.15;;
51838;SDS011;37886;53.174;6.368;2022-10-15T06:31:39;203.60;;;82.63;;
51838;SDS011;37886;53.174;6.368;2022-10-15T06:34:05;211.55;;;81.05;;
51838;SDS011;37886;53.174;6.368;2022-10-15T06:36:30;224.55;;;83.03;;
51838;SDS011;37886;53.174;6.368;2022-10-15T06:38:56;250.35;;;84.82;;
51838;SDS011;37886;53.174;6.368;2022-10-15T06:41:21;214.18;;;84.55;;
51838;SDS011;37886;53.174;6.368;2022-10-15T06:43:48;196.02;;;81.70;;
51838;SDS011;37886;53.174;6.368;2022-10-15T06:46:14;200.93;;;82.30;;
51838;SDS011;37886;53.174;6.368;2022-10-15T06:48:40;210.82;;;81.35;;
51838;SDS011;37886;53.174;6.368;2022-10-15T06:51:05;215.23;;;83.30;;
51838;SDS011;37886;53.174;6.368;2022-10-15T06:53:31;238.50;;;79.53;;
51838;SDS011;37886;53.174;6.368;2022-10-15T06:55:57;207.65;;;82.18;;
51838;SDS011;37886;53.174;6.368;2022-10-15T06:58:25;182.38;;;78.45;;
51838;SDS011;37886;53.174;6.368;2022-10-15T07:00:51;179.93;;;75.03;;
51838;SDS011;37886;53.174;6.368;2022-10-15T07:03:17;184.60;;;77.13;;
51838;SDS011;37886;53.174;6.368;2022-10-15T07:05:43;200.93;;;79.75;;
51838;SDS011;37886;53.174;6.368;2022-10-15T07:08:09;185.35;;;76.90;;
51838;SDS011;37886;53.174;6.368;2022-10-15T07:10:35;173.98;;;75.80;;
51838;SDS011;37886;53.174;6.368;2022-10-15T07:13:00;197.48;;;77.13;;
51838;SDS011;37886;53.174;6.368;2022-10-15T07:15:27;183.52;;;77.80;;
51838;SDS011;37886;53.174;6.368;2022-10-15T07:17:54;193.23;;;78.03;;
51838;SDS011;37886;53.174;6.368;2022-10-15T07:20:21;204.38;;;80.05;;
51838;SDS011;37886;53.174;6.368;2022-10-15T07:22:47;253.77;;;83.90;;
51838;SDS011;37886;53.174;6.368;2022-10-15T07:25:13;216.60;;;82.82;;
51838;SDS011;37886;53.174;6.368;2022-10-15T07:27:39;175.18;;;76.57;;
51838;SDS011;37886;53.174;6.368;2022-10-15T07:30:05;193.23;;;80.88;;
51838;SDS011;37886;53.174;6.368;2022-10-15T07:32:32;201.93;;;79.35;;
51838;SDS011;37886;53.174;6.368;2022-10-15T07:34:58;205.95;;;78.68;;
51838;SDS011;37886;53.174;6.368;2022-10-15T07:37:24;172.27;;;74.43;;
51838;SDS011;37886;53.174;6.368;2022-10-15T07:39:49;186.93;;;78.93;;
51838;SDS011;37886;53.174;6.368;2022-10-15T07:42:15;174.23;;;73.80;;
51838;SDS011;37886;53.174;6.368;2022-10-15T07:44:43;188.60;;;73.50;;
51838;SDS011;37886;53.174;6.368;2022-10-15T07:47:09;177.98;;;75.80;;
51838;SDS011;37886;53.174;6.368;2022-10-15T07:49:34;189.63;;;79.75;;
51838;SDS011;37886;53.174;6.368;2022-10-15T07:52:00;197.75;;;82.43;;
51838;SDS011;37886;53.174;6.368;2022-10-15T07:54:26;180.65;;;79.93;;
51838;SDS011;37886;53.174;6.368;2022-10-15T07:56:51;215.40;;;80.47;;
51838;SDS011;37886;53.174;6.368;2022-10-15T07:59:17;163.63;;;75.30;;
51838;SDS011;37886;53.174;6.368;2022-10-15T08:01:43;166.77;;;75.57;;
51838;SDS011;37886;53.174;6.368;2022-10-15T08:04:08;179.43;;;74.53;;
51838;SDS011;37886;53.174;6.368;2022-10-15T08:06:34;191.75;;;76.85;;
51838;SDS011;37886;53.174;6.368;2022-10-15T08:08:59;189.00;;;76.90;;
51838;SDS011;37886;53.174;6.368;2022-10-15T08:11:25;159.02;;;73.60;;
51838;SDS011;37886;53.174;6.368;2022-10-15T08:13:51;169.30;;;74.57;;
51838;SDS011;37886;53.174;6.368;2022-10-15T08:16:17;164.63;;;73.35;;
51838;SDS011;37886;53.174;6.368;2022-10-15T08:18:44;151.68;;;74.47;;
51838;SDS011;37886;53.174;6.368;2022-10-15T08:21:10;155.55;;;71.57;;
51838;SDS011;37886;53.174;6.368;2022-10-15T08:23:36;152.75;;;72.82;;
51838;SDS011;37886;53.174;6.368;2022-10-15T08:26:02;154.27;;;71.90;;
51838;SDS011;37886;53.174;6.368;2022-10-15T08:28:29;155.18;;;68.80;;
51838;SDS011;37886;53.174;6.368;2022-10-15T08:30:57;155.02;;;73.95;;
51838;SDS011;37886;53.174;6.368;2022-10-15T08:33:23;151.85;;;69.15;;
51838;SDS011;37886;53.174;6.368;2022-10-15T08:35:49;152.98;;;71.63;;
51838;SDS011;37886;53.174;6.368;2022-10-15T08:38:14;153.55;;;68.75;;
51838;SDS011;37886;53.174;6.368;2022-10-15T08:40:40;147.85;;;67.35;;
51838;SDS011;37886;53.174;6.368;2022-10-15T08:43:19;132.50;;;66.97;;
51838;SDS011;37886;53.174;6.368;2022-10-15T08:46:00;129.95;;;64.88;;
51838;SDS011;37886;53.174;6.368;2022-10-15T08:48:31;133.07;;;63.63;;
51838;SDS011;37886;53.174;6.368;2022-10-15T08:51:01;127.78;;;64.35;;
51838;SDS011;37886;53.174;6.368;2022-10-15T08:53:39;125.15;;;62.72;;
51838;SDS011;37886;53.174;6.368;2022-10-15T08:56:18;127.47;;;64.70;;
51838;SDS011;37886;53.174;6.368;2022-10-15T08:58:59;121.45;;;61.67;;
51838;SDS011;37886;53.174;6.368;2022-10-15T09:01:30;106.60;;;57.58;;
51838;SDS011;37886;53.174;6.368;2022-10-15T09:04:29;118.38;;;58.97;;
51838;SDS011;37886;53.174;6.368;2022-10-15T09:07:12;116.10;;;59.13;;
51838;SDS011;37886;53.174;6.368;2022-10-15T09:09:52;107.80;;;56.33;;
51838;SDS011;37886;53.174;6.368;2022-10-15T09:12:35;108.60;;;58.72;;
51838;SDS011;37886;53.174;6.368;2022-10-15T09:15:13;108.15;;;55.25;;
51838;SDS011;37886;53.174;6.368;2022-10-15T09:17:42;97.55;;;54.50;;
51838;SDS011;37886;53.174;6.368;2022-10-15T09:20:18;106.18;;;55.83;;
51838;SDS011;37886;53.174;6.368;2022-10-15T09:22:49;98.68;;;51.38;;
51838;SDS011;37886;53.174;6.368;2022-10-15T09:25:16;106.80;;;55.97;;
51838;SDS011;37886;53.174;6.368;2022-10-15T09:27:45;97.43;;;51.28;;
51838;SDS011;37886;53.174;6.368;2022-10-15T09:35:33;94.45;;;51.15;;
51838;SDS011;37886;53.174;6.368;2022-10-15T09:40:54;72.78;;;41.35;;
51838;SDS011;37886;53.174;6.368;2022-10-15T09:43:40;78.35;;;42.28;;
51838;SDS011;37886;53.174;6.368;2022-10-15T09:46:08;77.85;;;45.08;;
51838;SDS011;37886;53.174;6.368;2022-10-15T09:48:39;76.72;;;43.88;;
51838;SDS011;37886;53.174;6.368;2022-10-15T09:54:20;84.20;;;44.13;;
51838;SDS011;37886;53.174;6.368;2022-10-15T09:56:54;77.18;;;41.50;;
51838;SDS011;37886;53.174;6.368;2022-10-15T09:59:21;74.50;;;41.17;;
51838;SDS011;37886;53.174;6.368;2022-10-15T10:02:01;72.75;;;40.70;;
51838;SDS011;37886;53.174;6.368;2022-10-15T10:04:44;64.47;;;38.10;;
51838;SDS011;37886;53.174;6.368;2022-10-15T10:07:26;70.88;;;38.38;;
51838;SDS011;37886;53.174;6.368;2022-10-15T10:10:00;69.00;;;38.10;;
51838;SDS011;37886;53.174;6.368;2022-10-15T10:12:46;68.40;;;38.50;;
51838;SDS011;37886;53.174;6.368;2022-10-15T10:18:18;73.82;;;39.85;;
51838;SDS011;37886;53.174;6.368;2022-10-15T10:21:05;69.88;;;38.85;;
51838;SDS011;37886;53.174;6.368;2022-10-15T10:23:52;69.07;;;38.28;;
51838;SDS011;37886;53.174;6.368;2022-10-15T10:26:17;64.45;;;38.17;;
51838;SDS011;37886;53.174;6.368;2022-10-15T10:28:54;74.70;;;40.67;;
51838;SDS011;37886;53.174;6.368;2022-10-15T10:31:27;62.75;;;36.78;;
51838;SDS011;37886;53.174;6.368;2022-10-15T10:34:00;58.78;;;36.35;;
51838;SDS011;37886;53.174;6.368;2022-10-15T10:36:31;62.58;;;37.75;;
51838;SDS011;37886;53.174;6.368;2022-10-15T10:39:14;61.38;;;35.28;;
51838;SDS011;37886;53.174;6.368;2022-10-15T10:41:57;61.88;;;37.20;;
51838;SDS011;37886;53.174;6.368;2022-10-15T10:47:03;46.83;;;30.67;;
51838;SDS011;37886;53.174;6.368;2022-10-15T10:49:41;46.67;;;30.35;;
51838;SDS011;37886;53.174;6.368;2022-10-15T10:52:22;43.72;;;28.52;;
51838;SDS011;37886;53.174;6.368;2022-10-15T10:57:25;41.65;;;28.08;;
51838;SDS011;37886;53.174;6.368;2022-10-15T10:59:56;40.10;;;26.23;;
51838;SDS011;37886;53.174;6.368;2022-10-15T11:02:21;38.38;;;25.75;;
51838;SDS011;37886;53.174;6.368;2022-10-15T11:04:47;36.13;;;25.35;;
51838;SDS011;37886;53.174;6.368;2022-10-15T11:37:28;25.10;;;18.92;;
51838;SDS011;37886;53.174;6.368;2022-10-15T11:49:03;27.02;;;17.55;;
51838;SDS011;37886;53.174;6.368;2022-10-15T11:57:20;24.77;;;16.92;;
51838;SDS011;37886;53.174;6.368;2022-10-15T11:59:54;22.00;;;17.23;;
51838;SDS011;37886;53.174;6.368;2022-10-15T12:02:32;23.52;;;17.83;;
51838;SDS011;37886;53.174;6.368;2022-10-15T12:05:19;20.98;;;17.33;;
51838;SDS011;37886;53.174;6.368;2022-10-15T12:07:51;25.33;;;19.38;;
51838;SDS011;37886;53.174;6.368;2022-10-15T12:13:18;22.48;;;18.98;;
51838;SDS011;37886;53.174;6.368;2022-10-15T12:16:15;23.33;;;18.92;;
51838;SDS011;37886;53.174;6.368;2022-10-15T12:19:06;26.17;;;20.00;;
51838;SDS011;37886;53.174;6.368;2022-10-15T12:32:23;24.30;;;19.23;;
51838;SDS011;37886;53.174;6.368;2022-10-15T12:34:54;25.35;;;19.58;;
51838;SDS011;37886;53.174;6.368;2022-10-15T12:37:22;23.80;;;19.30;;
51838;SDS011;37886;53.174;6.368;2022-10-15T12:39:54;25.52;;;19.17;;
51838;SDS011;37886;53.174;6.368;2022-10-15T12:42:30;24.70;;;19.85;;
51838;SDS011;37886;53.174;6.368;2022-10-15T12:45:04;25.50;;;19.73;;
51838;SDS011;37886;53.174;6.368;2022-10-15T12:47:45;26.77;;;17.77;;
51838;SDS011;37886;53.174;6.368;2022-10-15T12:50:16;23.48;;;18.73;;
51838;SDS011;37886;53.174;6.368;2022-10-15T12:55:22;27.75;;;20.88;;
51838;SDS011;37886;53.174;6.368;2022-10-15T12:57:58;26.15;;;19.83;;
51838;SDS011;37886;53.174;6.368;2022-10-15T13:00:50;26.17;;;19.58;;
51838;SDS011;37886;53.174;6.368;2022-10-15T13:03:17;27.60;;;20.35;;
51838;SDS011;37886;53.174;6.368;2022-10-15T13:05:47;27.38;;;20.50;;
51838;SDS011;37886;53.174;6.368;2022-10-15T13:08:15;30.88;;;22.40;;
51838;SDS011;37886;53.174;6.368;2022-10-15T13:10:59;33.58;;;22.58;;
51838;SDS011;37886;53.174;6.368;2022-10-15T13:13:27;28.75;;;21.25;;
51838;SDS011;37886;53.174;6.368;2022-10-15T13:15:58;31.00;;;21.83;;
51838;SDS011;37886;53.174;6.368;2022-10-15T13:18:27;35.10;;;24.13;;
51838;SDS011;37886;53.174;6.368;2022-10-15T13:20:55;32.00;;;22.02;;
51838;SDS011;37886;53.174;6.368;2022-10-15T13:23:22;34.78;;;21.90;;
51838;SDS011;37886;53.174;6.368;2022-10-15T13:25:50;34.35;;;23.65;;
51838;SDS011;37886;53.174;6.368;2022-10-15T13:28:32;34.13;;;23.77;;
51838;SDS011;37886;53.174;6.368;2022-10-15T13:31:02;30.25;;;22.05;;
51838;SDS011;37886;53.174;6.368;2022-10-15T13:33:32;35.38;;;22.65;;
51838;SDS011;37886;53.174;6.368;2022-10-15T13:36:04;34.22;;;20.55;;
51838;SDS011;37886;53.174;6.368;2022-10-15T13:38:31;40.08;;;21.70;;
51838;SDS011;37886;53.174;6.368;2022-10-15T13:40:57;32.05;;;21.33;;
51838;SDS011;37886;53.174;6.368;2022-10-15T13:43:24;33.00;;;22.10;;
51838;SDS011;37886;53.174;6.368;2022-10-15T13:45:55;36.42;;;22.05;;
51838;SDS011;37886;53.174;6.368;2022-10-15T13:48:26;31.13;;;20.70;;
51838;SDS011;37886;53.174;6.368;2022-10-15T13:50:53;33.50;;;21.38;;
51838;SDS011;37886;53.174;6.368;2022-10-15T13:53:34;34.92;;;21.23;;
51838;SDS011;37886;53.174;6.368;2022-10-15T13:56:03;29.27;;;19.80;;
51838;SDS011;37886;53.174;6.368;2022-10-15T13:58:44;30.02;;;18.20;;
51838;SDS011;37886;53.174;6.368;2022-10-15T14:01:15;30.85;;;18.75;;
51838;SDS011;37886;53.174;6.368;2022-10-15T14:04:13;31.75;;;18.95;;
51838;SDS011;37886;53.174;6.368;2022-10-15T14:06:38;28.90;;;18.88;;
51838;SDS011;37886;53.174;6.368;2022-10-15T14:11:48;29.25;;;18.52;;
51838;SDS011;37886;53.174;6.368;2022-10-15T14:16:57;25.65;;;16.83;;
51838;SDS011;37886;53.174;6.368;2022-10-15T14:19:24;26.30;;;16.50;;
51838;SDS011;37886;53.174;6.368;2022-10-15T14:21:54;32.28;;;19.17;;
51838;SDS011;37886;53.174;6.368;2022-10-15T14:24:34;30.60;;;18.30;;
51838;SDS011;37886;53.174;6.368;2022-10-15T14:27:15;27.73;;;17.77;;
51838;SDS011;37886;53.174;6.368;2022-10-15T14:29:44;31.55;;;18.75;;
51838;SDS011;37886;53.174;6.368;2022-10-15T14:34:47;25.60;;;17.17;;
51838;SDS011;37886;53.174;6.368;2022-10-15T14:42:34;32.05;;;18.27;;
51838;SDS011;37886;53.174;6.368;2022-10-15T14:45:10;30.02;;;19.42;;
51838;SDS011;37886;53.174;6.368;2022-10-15T14:47:52;29.15;;;18.08;;
51838;SDS011;37886;53.174;6.368;2022-10-15T14:50:33;25.08;;;15.98;;
51838;SDS011;37886;53.174;6.368;2022-10-15T14:53:04;21.40;;;14.73;;
51838;SDS011;37886;53.174;6.368;2022-10-15T14:55:36;21.23;;;13.85;;
51838;SDS011;37886;53.174;6.368;2022-10-15T14:58:08;23.65;;;14.52;;
51838;SDS011;37886;53.174;6.368;2022-10-15T15:00:42;20.98;;;14.57;;
51838;SDS011;37886;53.174;6.368;2022-10-15T15:03:14;18.60;;;13.40;;
51838;SDS011;37886;53.174;6.368;2022-10-15T15:05:50;21.10;;;13.80;;
51838;SDS011;37886;53.174;6.368;2022-10-15T15:08:17;20.73;;;14.98;;
51838;SDS011;37886;53.174;6.368;2022-10-15T15:10:44;22.83;;;16.00;;
51838;SDS011;37886;53.174;6.368;2022-10-15T15:13:12;25.27;;;14.55;;
51838;SDS011;37886;53.174;6.368;2022-10-15T15:15:45;21.15;;;13.45;;
51838;SDS011;37886;53.174;6.368;2022-10-15T15:18:10;23.88;;;15.23;;
51838;SDS011;37886;53.174;6.368;2022-10-15T15:20:37;20.33;;;15.43;;
51838;SDS011;37886;53.174;6.368;2022-10-15T15:23:04;18.20;;;14.07;;
51838;SDS011;37886;53.174;6.368;2022-10-15T15:25:31;22.38;;;14.52;;
51838;SDS011;37886;53.174;6.368;2022-10-15T15:28:01;20.55;;;13.20;;
51838;SDS011;37886;53.174;6.368;2022-10-15T15:30:28;21.38;;;13.10;;
51838;SDS011;37886;53.174;6.368;2022-10-15T15:32:56;17.23;;;14.88;;
51838;SDS011;37886;53.174;6.368;2022-10-15T15:35:36;19.95;;;16.73;;
51838;SDS011;37886;53.174;6.368;2022-10-15T15:38:06;13.85;;;11.32;;
51838;SDS011;37886;53.174;6.368;2022-10-15T15:40:32;12.85;;;10.30;;
51838;SDS011;37886;53.174;6.368;2022-10-15T15:42:59;12.98;;;10.32;;
51838;SDS011;37886;53.174;6.368;2022-10-15T15:45:25;10.75;;;8.93;;
51838;SDS011;37886;53.174;6.368;2022-10-15T15:47:51;10.25;;;8.80;;
51838;SDS011;37886;53.174;6.368;2022-10-15T15:50:18;13.60;;;10.70;;
51838;SDS011;37886;53.174;6.368;2022-10-15T15:52:44;12.90;;;8.05;;
51838;SDS011;37886;53.174;6.368;2022-10-15T15:55:10;11.15;;;7.72;;
51838;SDS011;37886;53.174;6.368;2022-10-15T15:57:37;9.52;;;7.82;;
51838;SDS011;37886;53.174;6.368;2022-10-15T16:00:04;8.52;;;7.13;;
51838;SDS011;37886;53.174;6.368;2022-10-15T16:02:31;6.03;;;5.43;;
51838;SDS011;37886;53.174;6.368;2022-10-15T16:04:57;7.43;;;6.50;;
51838;SDS011;37886;53.174;6.368;2022-10-15T16:07:22;6.95;;;5.63;;
51838;SDS011;37886;53.174;6.368;2022-10-15T16:09:48;6.60;;;5.88;;
51838;SDS011;37886;53.174;6.368;2022-10-15T16:12:14;6.68;;;5.30;;
51838;SDS011;37886;53.174;6.368;2022-10-15T16:14:39;5.70;;;5.03;;
51838;SDS011;37886;53.174;6.368;2022-10-15T16:17:05;6.47;;;5.80;;
51838;SDS011;37886;53.174;6.368;2022-10-15T16:19:31;9.27;;;5.60;;
51838;SDS011;37886;53.174;6.368;2022-10-15T16:21:56;8.43;;;7.47;;
51838;SDS011;37886;53.174;6.368;2022-10-15T16:24:23;8.32;;;7.40;;
51838;SDS011;37886;53.174;6.368;2022-10-15T16:26:48;6.60;;;5.88;;